This is the latest recevied weather packets stored in our database for station/object NW6UP. If no packets are shown the sender has not sent any weather packets the latest 1 day(s).
| Time | Temp. | Humidity | Pressure | Rain* | Wind** | Luminosity | Snow |
|---|---|---|---|---|---|---|---|
| 1778019865 | 18.33° C | 59% | 1015.4 hPa | 0 mm | 0 m/s | - | - |
| 1778018666 | 18.33° C | 59% | 0 hPa | 0 mm | 0 m/s | - | - |
| 1778016266 | 18.89° C | 58% | 1015.4 hPa | 0 mm | 0 m/s | - | - |
| 1778015066 | 19.44° C | 56% | 0 hPa | 0 mm | 0 m/s | - | - |
| 1778013865 | 18.33° C | 58% | 1015.4 hPa | 0 mm | 0 m/s | - | - |
| 1778012665 | 18.33° C | 62% | 1015.5 hPa | 0 mm | 0 m/s | - | - |
| 1778011467 | 18.33° C | 60% | 0 hPa | 0 mm | 0 m/s | - | - |
| 1778010265 | 18.89° C | 59% | 1015.6 hPa | 0 mm | 0 m/s | - | - |
| 1778009066 | 18.33° C | 59% | 0 hPa | 0 mm | 0 m/s | - | - |
| 1778007865 | 17.78° C | 63% | 0 hPa | 0 mm | 0 m/s | - | - |
| 1778006666 | 16.67° C | 64% | 1015.6 hPa | 0 mm | 0 m/s | - | - |
| 1778005466 | 16.11° C | 67% | 1015.4 hPa | 0 mm | 0 m/s | - | - |
| 1778004266 | 15.56° C | 67% | 0 hPa | 0 mm | 0 m/s | - | - |
| 1778003066 | 15.56° C | 66% | 0 hPa | 0 mm | 0 m/s | - | - |
| 1778001868 | 15.56° C | 65% | 1015.3 hPa | 0 mm | 0 m/s | - | - |
| 1778000667 | 15° C | 66% | 0 hPa | 0 mm | 0 m/s | - | - |
| 1777999468 | 14.44° C | 67% | 0 hPa | 0 mm | 0 m/s | - | - |
| 1777997065 | 13.89° C | 72% | 0 hPa | 0 mm | 0.45 m/s, 180° | - | - |
| 1777995867 | 13.33° C | 75% | 1014.7 hPa | 0 mm | 0 m/s | - | - |
| 1777994666 | 12.78° C | 76% | 1014.6 hPa | 0 mm | 0.45 m/s, 360° | - | - |
| 1777991065 | 11.67° C | 82% | 0 hPa | 0 mm | 0.45 m/s, 360° | - | - |
| 1777989868 | 11.67° C | 84% | 1014.1 hPa | 0 mm | 0 m/s | - | - |
| 1777988665 | 11.67° C | 82% | 1014.1 hPa | 0 mm | 0 m/s | - | - |
| 1777987468 | 11.11° C | 88% | 0 hPa | 0 mm | 0 m/s | - | - |
| 1777986267 | 11.11° C | 87% | 1014.3 hPa | 0 mm | 0 m/s | - | - |
* Rain latest hour (hover to see other rain measurements)
** Current wind speed in m/s (hover to see current wind gust speed)